Weather at Hospital José Joaquim Fernandes heliport

Public forecast

Using degrees Celsius for public forecast. Weather courtesy of forecast.io.

Closest aviation weather report (METAR) to Hospital José Joaquim Fernandes heliport

Closest report is Beja Airport / Airbase, 4.9 nm (9.1 km) NW.

2024/07/25 07:00 (retrieved 34 minutes ago)

LPBJ 250700Z 28009KT 0600 FG OVC002 17/16 Q1013

Closest aviation forecast (TAF) to Hospital José Joaquim Fernandes heliport

Closest forecast is Beja Airport / Airbase, 4.9 nm (9.1 km) NW.

2024/07/25 06:18 (retrieved 1 hour ago)

TAF LPBJ 250508Z 2506/2606 27008KT 4000 BCFG BKN005 PROB30 2506/2508 0800 FG BKN002 BECMG 2507/2510 9999 NSW SCT010 BECMG 2511/2514 33010KT CAVOK BECMG 2523/2601 30005KT